メインページ
METAR-TAF:

METAR-TAF

空港 :

ヌメア国際空港, ニューカレドニア

緯度: 22-01S, 経度: 166-13E, 海抜: 16m

現時点の気象観測

当レポートは39分前の03:00(UTC)に作成
南/南西の風 8kt
気温 26°C
湿度 70%
気圧 1009 hPa
視程10km以上
高度4500ftの曇り

METAR: NWWW 250300Z AUTO 21008KT 9999 OVC045 26/20 Q1009 NOSIG

時間: 14:39 (03:39 UTC)

予報

当レポートは4時間39分前の23:00(UTC)に作成
予報は25日の 00時(UTC)から 25日の 24時(UTC)まで有効
変向風 2kt
視程10km以上
高度4000ftの雲は散在している
25日の 00時(UTC)から 25日の 03時(UTC)まで徐々に
の風 10kt
確率 30% :
25日の 00時(UTC)から 25日の 02時(UTC)まで一時的に
にわか雨
25日の 05時(UTC)から 25日の 07時(UTC)まで徐々に
変向風 2kt
確率 30% :
25日の 09時(UTC)から 25日の 20時(UTC)まで一時的に
にわか雨,

TAF: NWWW 242300Z 2500/2524 VRB02KT 9999 SCT040 BECMG 2500/2503 19010KT PROB30 TEMPO 2500/2502 SHRA BECMG 2505/2507 VRB02KT PROB30 TEMPO 2509/2520 SHRA

4,000以上の空港の気象観測と天気予報(METAR報とTAF報)

利用可能な観測所は地図上に黄色い丸と赤い丸で示す。

丸の上にカーソルを重ねると観測所名を参照できる。

次にクリックすると気象観測と天気予報を参照できる。

マップの切り替え:黒色「×」印の緑ボタンをクリックして拡大、「-」印の緑ボタンをクリックして縮小、緑色の三角印をクリックして隣りの地図に切り替え


METAR-TAF: